createdAt,value
2022-12-28T00:06:48.531Z,6
2022-12-28T00:21:48.485Z,6.2
2022-12-28T00:37:11.329Z,6.3
2022-12-28T00:51:48.541Z,6.2
2022-12-28T01:06:48.437Z,6.2
2022-12-28T01:21:48.523Z,6.4
2022-12-28T01:36:48.500Z,6.6
2022-12-28T01:51:48.499Z,6.9
2022-12-28T02:06:48.516Z,6.8
2022-12-28T02:21:48.625Z,6.8
2022-12-28T02:36:48.503Z,6.8
2022-12-28T02:51:48.515Z,6.9
2022-12-28T03:06:48.497Z,7.1
2022-12-28T03:21:48.499Z,7.2
2022-12-28T03:36:48.541Z,7.3
2022-12-28T03:51:48.532Z,7.4
2022-12-28T04:06:48.499Z,7.4
2022-12-28T04:21:48.533Z,7.6
2022-12-28T04:36:48.528Z,7.6
2022-12-28T04:51:48.501Z,7.7
2022-12-28T05:06:48.527Z,7.8
2022-12-28T05:21:48.530Z,7.8
2022-12-28T05:36:48.499Z,7.8
2022-12-28T05:51:48.530Z,7.8
2022-12-28T06:06:48.521Z,7.8
2022-12-28T06:21:48.504Z,7.8
2022-12-28T06:36:48.524Z,7.8
2022-12-28T06:51:48.520Z,7.9
2022-12-28T07:06:48.517Z,8
2022-12-28T07:21:48.497Z,8
2022-12-28T07:36:48.524Z,8
2022-12-28T07:51:48.496Z,8.1
2022-12-28T08:06:48.517Z,8.1
2022-12-28T08:21:48.525Z,8.1
2022-12-28T08:36:48.568Z,8.2
2022-12-28T08:51:48.524Z,8.3
2022-12-28T09:06:48.547Z,8.4
2022-12-28T09:21:48.521Z,8.4
2022-12-28T09:36:48.468Z,8.6
2022-12-28T09:51:48.537Z,8.7
2022-12-28T10:06:48.511Z,8.8
2022-12-28T10:21:48.530Z,9
2022-12-28T10:36:48.496Z,9.1
2022-12-28T10:51:48.507Z,9.2
2022-12-28T11:06:48.412Z,9.3
2022-12-28T11:21:48.523Z,9.2
2022-12-28T11:36:48.496Z,9.2
2022-12-28T11:51:48.518Z,9.2
2022-12-28T12:06:48.396Z,9.2
2022-12-28T12:21:48.505Z,9.1
2022-12-28T12:36:48.528Z,8.9
2022-12-28T12:51:48.400Z,9.1
2022-12-28T13:06:48.529Z,9.2
2022-12-28T13:21:48.516Z,9.4
2022-12-28T13:36:48.522Z,9.4
2022-12-28T13:51:53.047Z,9.4
2022-12-28T14:06:48.399Z,9.4
2022-12-28T14:21:48.401Z,9.4
2022-12-28T14:36:48.498Z,9.4
2022-12-28T14:51:48.405Z,9.4
2022-12-28T15:06:48.482Z,9.6
2022-12-28T15:21:48.522Z,9.5
2022-12-28T15:36:48.423Z,9.4
2022-12-28T15:51:48.493Z,9.6
2022-12-28T16:06:48.493Z,9.5
2022-12-28T16:21:48.497Z,9.5
2022-12-28T16:36:48.501Z,9.4
2022-12-28T16:51:48.510Z,9.2
2022-12-28T17:06:48.528Z,9.1
2022-12-28T17:21:48.503Z,9
2022-12-28T17:36:48.426Z,8.9
2022-12-28T17:51:48.522Z,8.6
2022-12-28T18:06:48.527Z,8.5
2022-12-28T18:21:48.526Z,8.4
2022-12-28T18:36:48.462Z,8.4
2022-12-28T18:51:48.463Z,8.4
2022-12-28T19:06:48.504Z,8.6
2022-12-28T19:21:50.433Z,8.9
2022-12-28T19:36:48.515Z,9.2
2022-12-28T19:51:48.412Z,9.2
2022-12-28T20:06:48.526Z,9.4
2022-12-28T20:21:48.513Z,9.7
2022-12-28T20:36:48.520Z,9.9
2022-12-28T20:51:48.397Z,10
2022-12-28T21:06:48.466Z,10
2022-12-28T21:21:48.482Z,9.8
2022-12-28T21:36:48.423Z,9.9
2022-12-28T21:51:48.519Z,9.7
2022-12-28T22:06:48.525Z,9.8
2022-12-28T22:21:48.525Z,9.9
2022-12-28T22:36:48.496Z,10.1
2022-12-28T22:51:48.529Z,10.2
2022-12-28T23:06:48.491Z,10.4
2022-12-28T23:21:48.530Z,10.1
2022-12-28T23:36:48.533Z,9.9
2022-12-28T23:51:48.530Z,10.2
